sensor_id;sensor_type;location;lat;lon;timestamp;temperature;humidity
61374;DHT22;47242;48.158;-1.586;2023-11-21T05:30:27;11.50;87.40
61374;DHT22;47242;48.158;-1.586;2023-11-21T05:32:53;11.50;87.60
61374;DHT22;47242;48.158;-1.586;2023-11-21T05:35:19;11.50;87.60
61374;DHT22;47242;48.158;-1.586;2023-11-21T05:37:45;11.50;87.60
61374;DHT22;47242;48.158;-1.586;2023-11-21T05:40:11;11.50;87.40
61374;DHT22;47242;48.158;-1.586;2023-11-21T05:42:39;11.50;87.10
61374;DHT22;47242;48.158;-1.586;2023-11-21T05:45:06;11.60;87.40
61374;DHT22;47242;48.158;-1.586;2023-11-21T05:47:41;11.60;87.20
61374;DHT22;47242;48.158;-1.586;2023-11-21T05:50:11;11.60;87.20
61374;DHT22;47242;48.158;-1.586;2023-11-21T05:52:44;11.60;87.40
61374;DHT22;47242;48.158;-1.586;2023-11-21T05:55:10;11.50;87.30
61374;DHT22;47242;48.158;-1.586;2023-11-21T05:57:37;11.50;87.30
61374;DHT22;47242;48.158;-1.586;2023-11-21T06:00:11;11.50;87.30
61374;DHT22;47242;48.158;-1.586;2023-11-21T06:02:41;11.40;87.30
61374;DHT22;47242;48.158;-1.586;2023-11-21T06:05:08;11.40;87.30
61374;DHT22;47242;48.158;-1.586;2023-11-21T06:07:34;11.30;87.20
61374;DHT22;47242;48.158;-1.586;2023-11-21T06:10:02;11.20;87.00
61374;DHT22;47242;48.158;-1.586;2023-11-21T06:12:31;11.20;87.10
61374;DHT22;47242;48.158;-1.586;2023-11-21T06:15:04;11.10;86.90
61374;DHT22;47242;48.158;-1.586;2023-11-21T06:17:31;11.10;87.00
61374;DHT22;47242;48.158;-1.586;2023-11-21T06:19:57;11.00;87.20
61374;DHT22;47242;48.158;-1.586;2023-11-21T06:22:22;11.00;86.80
61374;DHT22;47242;48.158;-1.586;2023-11-21T06:24:48;11.00;87.10
61374;DHT22;47242;48.158;-1.586;2023-11-21T06:27:13;11.00;87.20
61374;DHT22;47242;48.158;-1.586;2023-11-21T06:29:39;10.90;87.10
61374;DHT22;47242;48.158;-1.586;2023-11-21T06:32:05;11.10;87.20
61374;DHT22;47242;48.158;-1.586;2023-11-21T06:34:31;11.10;87.40
61374;DHT22;47242;48.158;-1.586;2023-11-21T06:36:56;11.20;87.50
61374;DHT22;47242;48.158;-1.586;2023-11-21T06:39:22;11.20;87.30
61374;DHT22;47242;48.158;-1.586;2023-11-21T06:41:49;11.30;87.30
61374;DHT22;47242;48.158;-1.586;2023-11-21T06:44:15;11.40;87.20
61374;DHT22;47242;48.158;-1.586;2023-11-21T06:46:41;11.50;87.10
61374;DHT22;47242;48.158;-1.586;2023-11-21T06:49:08;11.50;87.00
61374;DHT22;47242;48.158;-1.586;2023-11-21T06:51:34;11.50;87.00
61374;DHT22;47242;48.158;-1.586;2023-11-21T06:53:59;11.50;87.00
61374;DHT22;47242;48.158;-1.586;2023-11-21T06:56:25;11.50;87.00
61374;DHT22;47242;48.158;-1.586;2023-11-21T06:58:51;11.50;87.00
61374;DHT22;47242;48.158;-1.586;2023-11-21T07:01:19;11.60;87.10
61374;DHT22;47242;48.158;-1.586;2023-11-21T07:03:45;11.60;87.10
61374;DHT22;47242;48.158;-1.586;2023-11-21T07:06:11;11.60;87.10
61374;DHT22;47242;48.158;-1.586;2023-11-21T07:08:37;11.60;87.20
61374;DHT22;47242;48.158;-1.586;2023-11-21T07:11:03;11.60;87.10
61374;DHT22;47242;48.158;-1.586;2023-11-21T07:13:30;11.60;87.30
61374;DHT22;47242;48.158;-1.586;2023-11-21T07:15:55;11.50;87.30
61374;DHT22;47242;48.158;-1.586;2023-11-21T07:18:21;11.60;87.30
61374;DHT22;47242;48.158;-1.586;2023-11-21T07:20:47;11.60;87.40
61374;DHT22;47242;48.158;-1.586;2023-11-21T07:23:12;11.60;87.50
61374;DHT22;47242;48.158;-1.586;2023-11-21T07:25:38;11.60;87.30
61374;DHT22;47242;48.158;-1.586;2023-11-21T07:28:03;11.60;87.50
61374;DHT22;47242;48.158;-1.586;2023-11-21T07:30:30;11.70;87.50
61374;DHT22;47242;48.158;-1.586;2023-11-21T07:32:56;11.60;87.50
61374;DHT22;47242;48.158;-1.586;2023-11-21T07:35:22;11.70;87.50
61374;DHT22;47242;48.158;-1.586;2023-11-21T07:37:47;11.70;87.40
61374;DHT22;47242;48.158;-1.586;2023-11-21T07:40:14;11.70;87.40
61374;DHT22;47242;48.158;-1.586;2023-11-21T07:42:40;11.70;87.40
61374;DHT22;47242;48.158;-1.586;2023-11-21T07:45:08;11.70;87.40
61374;DHT22;47242;48.158;-1.586;2023-11-21T07:47:34;11.70;87.50
61374;DHT22;47242;48.158;-1.586;2023-11-21T07:50:03;11.60;87.40
61374;DHT22;47242;48.158;-1.586;2023-11-21T07:52:28;11.70;87.50
61374;DHT22;47242;48.158;-1.586;2023-11-21T07:54:54;11.70;87.40
61374;DHT22;47242;48.158;-1.586;2023-11-21T07:57:19;11.70;87.40
61374;DHT22;47242;48.158;-1.586;2023-11-21T07:59:45;11.70;87.30
61374;DHT22;47242;48.158;-1.586;2023-11-21T08:02:11;11.70;87.30
61374;DHT22;47242;48.158;-1.586;2023-11-21T08:04:36;11.60;87.20
61374;DHT22;47242;48.158;-1.586;2023-11-21T08:07:02;11.60;87.20
61374;DHT22;47242;48.158;-1.586;2023-11-21T08:09:29;11.50;87.20
61374;DHT22;47242;48.158;-1.586;2023-11-21T08:11:55;11.50;87.40
61374;DHT22;47242;48.158;-1.586;2023-11-21T08:14:20;11.50;87.20
61374;DHT22;47242;48.158;-1.586;2023-11-21T08:16:46;11.50;87.30
61374;DHT22;47242;48.158;-1.586;2023-11-21T08:19:12;11.50;87.40
61374;DHT22;47242;48.158;-1.586;2023-11-21T08:21:38;11.50;87.30
61374;DHT22;47242;48.158;-1.586;2023-11-21T08:24:05;11.50;87.30
61374;DHT22;47242;48.158;-1.586;2023-11-21T08:26:31;11.60;87.30
61374;DHT22;47242;48.158;-1.586;2023-11-21T08:28:56;11.80;87.30
61374;DHT22;47242;48.158;-1.586;2023-11-21T08:31:26;11.80;87.20
61374;DHT22;47242;48.158;-1.586;2023-11-21T08:33:52;11.80;87.20
61374;DHT22;47242;48.158;-1.586;2023-11-21T08:36:21;11.90;87.20
61374;DHT22;47242;48.158;-1.586;2023-11-21T08:38:48;11.90;87.10
61374;DHT22;47242;48.158;-1.586;2023-11-21T08:41:14;11.90;87.40
61374;DHT22;47242;48.158;-1.586;2023-11-21T08:43:41;11.90;87.20
61374;DHT22;47242;48.158;-1.586;2023-11-21T08:46:07;12.00;87.30
61374;DHT22;47242;48.158;-1.586;2023-11-21T08:48:35;12.10;87.20
61374;DHT22;47242;48.158;-1.586;2023-11-21T08:51:01;12.10;87.20
61374;DHT22;47242;48.158;-1.586;2023-11-21T08:53:27;12.20;87.10
61374;DHT22;47242;48.158;-1.586;2023-11-21T08:55:52;12.30;87.10
61374;DHT22;47242;48.158;-1.586;2023-11-21T08:58:19;12.20;87.00
61374;DHT22;47242;48.158;-1.586;2023-11-21T09:00:45;12.20;86.90
61374;DHT22;47242;48.158;-1.586;2023-11-21T09:03:12;12.20;86.90
61374;DHT22;47242;48.158;-1.586;2023-11-21T09:05:39;12.20;86.90
61374;DHT22;47242;48.158;-1.586;2023-11-21T09:08:05;12.10;86.90
61374;DHT22;47242;48.158;-1.586;2023-11-21T09:10:30;12.20;86.90
61374;DHT22;47242;48.158;-1.586;2023-11-21T09:12:56;12.20;87.00
61374;DHT22;47242;48.158;-1.586;2023-11-21T09:15:22;12.30;86.70
61374;DHT22;47242;48.158;-1.586;2023-11-21T09:17:48;12.30;86.90
61374;DHT22;47242;48.158;-1.586;2023-11-21T09:20:14;12.20;86.80
61374;DHT22;47242;48.158;-1.586;2023-11-21T09:22:40;12.20;86.80
61374;DHT22;47242;48.158;-1.586;2023-11-21T09:25:06;12.30;86.80
61374;DHT22;47242;48.158;-1.586;2023-11-21T09:27:34;12.20;86.70
61374;DHT22;47242;48.158;-1.586;2023-11-21T09:30:01;12.40;86.80
61374;DHT22;47242;48.158;-1.586;2023-11-21T09:32:26;12.70;86.60
61374;DHT22;47242;48.158;-1.586;2023-11-21T09:34:52;12.80;86.60
61374;DHT22;47242;48.158;-1.586;2023-11-21T09:37:20;12.70;86.40
61374;DHT22;47242;48.158;-1.586;2023-11-21T09:39:46;12.60;86.30
61374;DHT22;47242;48.158;-1.586;2023-11-21T09:42:23;12.50;86.20
61374;DHT22;47242;48.158;-1.586;2023-11-21T09:44:58;12.50;86.50
61374;DHT22;47242;48.158;-1.586;2023-11-21T09:47:29;12.60;86.80
61374;DHT22;47242;48.158;-1.586;2023-11-21T09:49:56;12.70;86.90
61374;DHT22;47242;48.158;-1.586;2023-11-21T09:52:28;12.90;86.70
61374;DHT22;47242;48.158;-1.586;2023-11-21T09:54:55;12.90;86.30
61374;DHT22;47242;48.158;-1.586;2023-11-21T09:57:25;13.00;86.30
61374;DHT22;47242;48.158;-1.586;2023-11-21T09:59:51;13.20;86.10
61374;DHT22;47242;48.158;-1.586;2023-11-21T10:02:23;13.20;86.00
61374;DHT22;47242;48.158;-1.586;2023-11-21T10:04:51;13.20;85.80
61374;DHT22;47242;48.158;-1.586;2023-11-21T10:07:18;13.30;85.80
61374;DHT22;47242;48.158;-1.586;2023-11-21T10:09:44;13.20;85.80
61374;DHT22;47242;48.158;-1.586;2023-11-21T10:12:11;13.20;85.90
61374;DHT22;47242;48.158;-1.586;2023-11-21T10:14:41;13.30;85.80
61374;DHT22;47242;48.158;-1.586;2023-11-21T10:17:08;13.40;85.90
61374;DHT22;47242;48.158;-1.586;2023-11-21T10:19:39;13.50;85.80
61374;DHT22;47242;48.158;-1.586;2023-11-21T10:22:05;13.50;85.60
61374;DHT22;47242;48.158;-1.586;2023-11-21T10:24:32;13.40;85.60
61374;DHT22;47242;48.158;-1.586;2023-11-21T10:26:58;13.30;85.50
61374;DHT22;47242;48.158;-1.586;2023-11-21T10:29:29;13.20;85.90
61374;DHT22;47242;48.158;-1.586;2023-11-21T10:31:55;13.30;86.00
61374;DHT22;47242;48.158;-1.586;2023-11-21T10:34:24;13.20;86.00
61374;DHT22;47242;48.158;-1.586;2023-11-21T10:36:50;13.30;86.10
61374;DHT22;47242;48.158;-1.586;2023-11-21T10:39:20;13.20;86.00
61374;DHT22;47242;48.158;-1.586;2023-11-21T10:41:49;13.20;86.10
61374;DHT22;47242;48.158;-1.586;2023-11-21T10:44:16;13.20;86.00
61374;DHT22;47242;48.158;-1.586;2023-11-21T10:46:54;13.20;86.10
61374;DHT22;47242;48.158;-1.586;2023-11-21T10:49:27;13.30;86.00
61374;DHT22;47242;48.158;-1.586;2023-11-21T10:51:53;13.30;85.70
61374;DHT22;47242;48.158;-1.586;2023-11-21T10:54:20;13.30;85.50
61374;DHT22;47242;48.158;-1.586;2023-11-21T10:56:49;13.40;85.40
61374;DHT22;47242;48.158;-1.586;2023-11-21T10:59:17;13.30;85.50
61374;DHT22;47242;48.158;-1.586;2023-11-21T11:01:45;13.30;85.30
61374;DHT22;47242;48.158;-1.586;2023-11-21T11:04:12;13.30;85.40
61374;DHT22;47242;48.158;-1.586;2023-11-21T11:06:47;13.30;85.30
61374;DHT22;47242;48.158;-1.586;2023-11-21T11:09:17;13.30;85.30
61374;DHT22;47242;48.158;-1.586;2023-11-21T11:11:44;13.40;85.30
61374;DHT22;47242;48.158;-1.586;2023-11-21T11:14:14;13.40;85.20
61374;DHT22;47242;48.158;-1.586;2023-11-21T11:16:40;13.60;85.10
61374;DHT22;47242;48.158;-1.586;2023-11-21T11:19:07;13.70;84.90
61374;DHT22;47242;48.158;-1.586;2023-11-21T11:24:46;13.80;84.00
61374;DHT22;47242;48.158;-1.586;2023-11-21T11:27:24;13.80;84.10
61374;DHT22;47242;48.158;-1.586;2023-11-21T11:35:38;13.80;83.50
61374;DHT22;47242;48.158;-1.586;2023-11-21T11:38:07;13.80;83.70
61374;DHT22;47242;48.158;-1.586;2023-11-21T11:40:52;13.90;83.10
61374;DHT22;47242;48.158;-1.586;2023-11-21T11:43:25;13.90;83.50
61374;DHT22;47242;48.158;-1.586;2023-11-21T11:45:51;13.90;83.50
61374;DHT22;47242;48.158;-1.586;2023-11-21T11:48:18;13.90;83.00
61374;DHT22;47242;48.158;-1.586;2023-11-21T11:51:22;13.80;83.20
61374;DHT22;47242;48.158;-1.586;2023-11-21T11:53:48;13.80;83.20
61374;DHT22;47242;48.158;-1.586;2023-11-21T11:56:28;13.80;83.10
61374;DHT22;47242;48.158;-1.586;2023-11-21T11:58:58;13.90;82.90
61374;DHT22;47242;48.158;-1.586;2023-11-21T12:01:26;14.10;82.90
61374;DHT22;47242;48.158;-1.586;2023-11-21T12:06:36;14.50;82.00
61374;DHT22;47242;48.158;-1.586;2023-11-21T12:09:02;14.60;81.50
61374;DHT22;47242;48.158;-1.586;2023-11-21T12:11:31;14.60;81.00
61374;DHT22;47242;48.158;-1.586;2023-11-21T12:13:58;14.40;80.90
61374;DHT22;47242;48.158;-1.586;2023-11-21T12:16:25;14.40;81.00
61374;DHT22;47242;48.158;-1.586;2023-11-21T12:18:55;14.40;81.20
61374;DHT22;47242;48.158;-1.586;2023-11-21T12:21:20;14.40;81.10
61374;DHT22;47242;48.158;-1.586;2023-11-21T12:23:47;14.40;81.40
61374;DHT22;47242;48.158;-1.586;2023-11-21T12:26:13;14.40;81.10
61374;DHT22;47242;48.158;-1.586;2023-11-21T12:28:39;14.30;80.40
61374;DHT22;47242;48.158;-1.586;2023-11-21T12:31:05;14.30;80.50
61374;DHT22;47242;48.158;-1.586;2023-11-21T12:33:33;14.20;80.40
61374;DHT22;47242;48.158;-1.586;2023-11-21T12:35:59;14.20;81.10
61374;DHT22;47242;48.158;-1.586;2023-11-21T12:38:24;14.10;80.60
61374;DHT22;47242;48.158;-1.586;2023-11-21T12:40:50;14.20;81.20
61374;DHT22;47242;48.158;-1.586;2023-11-21T12:43:17;14.20;81.20
61374;DHT22;47242;48.158;-1.586;2023-11-21T12:45:43;14.20;81.00
61374;DHT22;47242;48.158;-1.586;2023-11-21T12:48:09;14.20;81.00
61374;DHT22;47242;48.158;-1.586;2023-11-21T12:50:37;14.10;81.10
61374;DHT22;47242;48.158;-1.586;2023-11-21T12:53:06;13.90;80.90
61374;DHT22;47242;48.158;-1.586;2023-11-21T12:55:34;13.90;80.50
61374;DHT22;47242;48.158;-1.586;2023-11-21T12:58:05;13.80;80.40
61374;DHT22;47242;48.158;-1.586;2023-11-21T13:00:40;13.80;80.60
61374;DHT22;47242;48.158;-1.586;2023-11-21T13:03:09;13.80;79.80
61374;DHT22;47242;48.158;-1.586;2023-11-21T13:05:40;13.80;80.90
61374;DHT22;47242;48.158;-1.586;2023-11-21T13:08:11;13.90;80.70
61374;DHT22;47242;48.158;-1.586;2023-11-21T13:10:43;14.00;80.70
61374;DHT22;47242;48.158;-1.586;2023-11-21T13:13:11;14.00;79.80
61374;DHT22;47242;48.158;-1.586;2023-11-21T13:15:53;14.10;80.10
61374;DHT22;47242;48.158;-1.586;2023-11-21T13:18:22;14.00;79.60
61374;DHT22;47242;48.158;-1.586;2023-11-21T13:20:49;13.90;78.70
61374;DHT22;47242;48.158;-1.586;2023-11-21T13:23:15;13.90;79.50
61374;DHT22;47242;48.158;-1.586;2023-11-21T13:25:44;13.90;79.20
61374;DHT22;47242;48.158;-1.586;2023-11-21T13:28:12;14.00;79.30
61374;DHT22;47242;48.158;-1.586;2023-11-21T13:30:38;14.00;79.00
61374;DHT22;47242;48.158;-1.586;2023-11-21T13:33:06;14.00;79.30
61374;DHT22;47242;48.158;-1.586;2023-11-21T13:35:37;14.00;79.50
61374;DHT22;47242;48.158;-1.586;2023-11-21T13:38:09;14.00;79.70
61374;DHT22;47242;48.158;-1.586;2023-11-21T13:40:36;14.00;78.90
61374;DHT22;47242;48.158;-1.586;2023-11-21T13:43:09;14.00;79.20
61374;DHT22;47242;48.158;-1.586;2023-11-21T13:45:41;13.80;79.10
61374;DHT22;47242;48.158;-1.586;2023-11-21T13:48:08;13.90;79.40
61374;DHT22;47242;48.158;-1.586;2023-11-21T13:50:36;13.90;79.50
61374;DHT22;47242;48.158;-1.586;2023-11-21T13:53:02;13.80;79.00
61374;DHT22;47242;48.158;-1.586;2023-11-21T13:55:36;13.90;79.40
61374;DHT22;47242;48.158;-1.586;2023-11-21T13:58:02;13.90;78.80
61374;DHT22;47242;48.158;-1.586;2023-11-21T14:00:29;13.90;78.70
61374;DHT22;47242;48.158;-1.586;2023-11-21T14:03:12;13.90;78.80
61374;DHT22;47242;48.158;-1.586;2023-11-21T14:05:48;13.90;78.80
61374;DHT22;47242;48.158;-1.586;2023-11-21T14:08:18;13.90;78.50
61374;DHT22;47242;48.158;-1.586;2023-11-21T14:10:45;13.80;78.90
61374;DHT22;47242;48.158;-1.586;2023-11-21T14:13:17;13.70;79.20
61374;DHT22;47242;48.158;-1.586;2023-11-21T14:15:43;13.70;79.10
61374;DHT22;47242;48.158;-1.586;2023-11-21T14:18:11;13.70;78.90
61374;DHT22;47242;48.158;-1.586;2023-11-21T14:20:40;13.70;79.10
61374;DHT22;47242;48.158;-1.586;2023-11-21T14:23:06;13.60;79.00
61374;DHT22;47242;48.158;-1.586;2023-11-21T14:25:36;13.70;79.20
61374;DHT22;47242;48.158;-1.586;2023-11-21T14:28:03;13.70;79.20
61374;DHT22;47242;48.158;-1.586;2023-11-21T14:30:29;13.60;78.80
61374;DHT22;47242;48.158;-1.586;2023-11-21T14:33:00;13.60;79.00
61374;DHT22;47242;48.158;-1.586;2023-11-21T14:35:26;13.60;79.30
61374;DHT22;47242;48.158;-1.586;2023-11-21T14:37:52;13.70;79.40
61374;DHT22;47242;48.158;-1.586;2023-11-21T14:40:18;13.60;79.20
61374;DHT22;47242;48.158;-1.586;2023-11-21T14:42:50;13.70;79.40
61374;DHT22;47242;48.158;-1.586;2023-11-21T14:45:18;13.70;79.10
61374;DHT22;47242;48.158;-1.586;2023-11-21T14:47:46;13.60;79.10
61374;DHT22;47242;48.158;-1.586;2023-11-21T14:50:20;13.60;78.90
61374;DHT22;47242;48.158;-1.586;2023-11-21T14:53:14;13.60;79.00
61374;DHT22;47242;48.158;-1.586;2023-11-21T14:55:40;13.50;78.90
61374;DHT22;47242;48.158;-1.586;2023-11-21T14:58:14;13.50;79.30
61374;DHT22;47242;48.158;-1.586;2023-11-21T15:00:45;13.40;79.30
61374;DHT22;47242;48.158;-1.586;2023-11-21T15:03:11;13.40;79.40
61374;DHT22;47242;48.158;-1.586;2023-11-21T15:05:59;13.30;79.40
61374;DHT22;47242;48.158;-1.586;2023-11-21T15:08:37;13.30;78.60
61374;DHT22;47242;48.158;-1.586;2023-11-21T15:11:03;13.20;78.50
61374;DHT22;47242;48.158;-1.586;2023-11-21T15:13:32;13.20;79.20
61374;DHT22;47242;48.158;-1.586;2023-11-21T15:15:58;13.20;79.20
61374;DHT22;47242;48.158;-1.586;2023-11-21T15:18:33;13.20;79.30
61374;DHT22;47242;48.158;-1.586;2023-11-21T15:20:59;13.20;79.30
61374;DHT22;47242;48.158;-1.586;2023-11-21T15:23:25;13.10;78.80
61374;DHT22;47242;48.158;-1.586;2023-11-21T15:25:53;13.20;79.50
61374;DHT22;47242;48.158;-1.586;2023-11-21T15:28:19;13.10;78.90
61374;DHT22;47242;48.158;-1.586;2023-11-21T15:30:45;13.10;78.20
61374;DHT22;47242;48.158;-1.586;2023-11-21T15:33:13;13.00;78.30
61374;DHT22;47242;48.158;-1.586;2023-11-21T15:35:39;13.00;78.70
61374;DHT22;47242;48.158;-1.586;2023-11-21T15:38:06;13.00;78.70
61374;DHT22;47242;48.158;-1.586;2023-11-21T15:40:33;12.90;78.80
61374;DHT22;47242;48.158;-1.586;2023-11-21T15:42:59;12.90;78.50
61374;DHT22;47242;48.158;-1.586;2023-11-21T15:45:25;12.90;78.70
61374;DHT22;47242;48.158;-1.586;2023-11-21T15:47:51;12.90;79.10
61374;DHT22;47242;48.158;-1.586;2023-11-21T15:50:19;12.90;78.70
61374;DHT22;47242;48.158;-1.586;2023-11-21T15:52:44;12.80;78.70
61374;DHT22;47242;48.158;-1.586;2023-11-21T15:55:11;12.80;79.20
61374;DHT22;47242;48.158;-1.586;2023-11-21T15:57:36;12.80;78.90
61374;DHT22;47242;48.158;-1.586;2023-11-21T16:00:02;12.80;79.30
61374;DHT22;47242;48.158;-1.586;2023-11-21T16:02:36;12.80;79.30
61374;DHT22;47242;48.158;-1.586;2023-11-21T16:05:04;12.80;78.90
61374;DHT22;47242;48.158;-1.586;2023-11-21T16:07:30;12.70;79.00
61374;DHT22;47242;48.158;-1.586;2023-11-21T16:09:56;12.70;79.70
61374;DHT22;47242;48.158;-1.586;2023-11-21T16:12:23;12.70;79.10
61374;DHT22;47242;48.158;-1.586;2023-11-21T16:14:48;12.70;79.30
61374;DHT22;47242;48.158;-1.586;2023-11-21T16:17:15;12.50;78.80
61374;DHT22;47242;48.158;-1.586;2023-11-21T16:19:43;12.50;79.30
61374;DHT22;47242;48.158;-1.586;2023-11-21T16:22:09;12.50;79.20
61374;DHT22;47242;48.158;-1.586;2023-11-21T16:24:36;12.50;78.60
61374;DHT22;47242;48.158;-1.586;2023-11-21T16:27:02;12.50;78.90
61374;DHT22;47242;48.158;-1.586;2023-11-21T16:29:29;12.50;79.00
61374;DHT22;47242;48.158;-1.586;2023-11-21T16:31:56;12.50;78.90
61374;DHT22;47242;48.158;-1.586;2023-11-21T16:34:22;12.50;78.80
61374;DHT22;47242;48.158;-1.586;2023-11-21T16:36:48;12.50;78.60
61374;DHT22;47242;48.158;-1.586;2023-11-21T16:39:18;12.50;78.70
61374;DHT22;47242;48.158;-1.586;2023-11-21T16:41:45;12.40;78.80
61374;DHT22;47242;48.158;-1.586;2023-11-21T16:44:15;12.50;78.60
61374;DHT22;47242;48.158;-1.586;2023-11-21T16:46:49;12.50;78.90
61374;DHT22;47242;48.158;-1.586;2023-11-21T16:49:30;12.50;78.90
61374;DHT22;47242;48.158;-1.586;2023-11-21T16:51:57;12.40;78.50
61374;DHT22;47242;48.158;-1.586;2023-11-21T16:54:23;12.40;79.10
61374;DHT22;47242;48.158;-1.586;2023-11-21T16:56:49;12.30;78.90
61374;DHT22;47242;48.158;-1.586;2023-11-21T16:59:15;12.30;78.90
61374;DHT22;47242;48.158;-1.586;2023-11-21T17:01:41;12.30;79.20
61374;DHT22;47242;48.158;-1.586;2023-11-21T17:04:07;12.30;79.00
61374;DHT22;47242;48.158;-1.586;2023-11-21T17:06:40;12.40;78.80
61374;DHT22;47242;48.158;-1.586;2023-11-21T17:09:05;12.30;79.00
61374;DHT22;47242;48.158;-1.586;2023-11-21T17:11:38;12.30;78.50
61374;DHT22;47242;48.158;-1.586;2023-11-21T17:14:06;12.30;79.00
61374;DHT22;47242;48.158;-1.586;2023-11-21T17:16:32;12.30;78.60
61374;DHT22;47242;48.158;-1.586;2023-11-21T17:18:58;12.20;78.70
61374;DHT22;47242;48.158;-1.586;2023-11-21T17:21:24;12.20;79.00
61374;DHT22;47242;48.158;-1.586;2023-11-21T17:23:50;12.20;79.10
61374;DHT22;47242;48.158;-1.586;2023-11-21T17:26:16;12.20;78.60
61374;DHT22;47242;48.158;-1.586;2023-11-21T17:28:43;12.30;79.00
61374;DHT22;47242;48.158;-1.586;2023-11-21T17:31:08;12.20;78.90
61374;DHT22;47242;48.158;-1.586;2023-11-21T17:33:35;12.30;79.20
61374;DHT22;47242;48.158;-1.586;2023-11-21T17:36:03;12.30;79.00
61374;DHT22;47242;48.158;-1.586;2023-11-21T17:38:30;12.20;79.10
61374;DHT22;47242;48.158;-1.586;2023-11-21T17:40:55;12.20;79.00
61374;DHT22;47242;48.158;-1.586;2023-11-21T17:43:21;12.20;78.90
61374;DHT22;47242;48.158;-1.586;2023-11-21T17:45:47;12.20;78.70
61374;DHT22;47242;48.158;-1.586;2023-11-21T17:48:14;12.20;79.10
61374;DHT22;47242;48.158;-1.586;2023-11-21T17:50:39;12.20;78.80
61374;DHT22;47242;48.158;-1.586;2023-11-21T17:53:05;12.10;78.40
61374;DHT22;47242;48.158;-1.586;2023-11-21T17:55:31;12.10;78.80
61374;DHT22;47242;48.158;-1.586;2023-11-21T17:57:57;12.10;78.80
61374;DHT22;47242;48.158;-1.586;2023-11-21T18:00:23;12.20;78.70
61374;DHT22;47242;48.158;-1.586;2023-11-21T18:02:53;12.20;78.80
61374;DHT22;47242;48.158;-1.586;2023-11-21T18:05:18;12.20;78.80
61374;DHT22;47242;48.158;-1.586;2023-11-21T18:07:46;12.20;78.50
61374;DHT22;47242;48.158;-1.586;2023-11-21T18:10:12;12.10;78.30
61374;DHT22;47242;48.158;-1.586;2023-11-21T18:12:38;12.10;78.40
61374;DHT22;47242;48.158;-1.586;2023-11-21T18:15:04;12.10;78.30
61374;DHT22;47242;48.158;-1.586;2023-11-21T18:17:30;12.10;78.30
61374;DHT22;47242;48.158;-1.586;2023-11-21T18:19:56;12.00;78.00
61374;DHT22;47242;48.158;-1.586;2023-11-21T18:22:22;12.10;78.60
61374;DHT22;47242;48.158;-1.586;2023-11-21T18:24:50;12.00;78.50
61374;DHT22;47242;48.158;-1.586;2023-11-21T18:27:18;12.00;78.40
61374;DHT22;47242;48.158;-1.586;2023-11-21T18:29:49;12.00;78.50
61374;DHT22;47242;48.158;-1.586;2023-11-21T18:32:15;12.00;78.50
61374;DHT22;47242;48.158;-1.586;2023-11-21T18:34:41;12.10;78.70
61374;DHT22;47242;48.158;-1.586;2023-11-21T18:37:07;12.10;78.70
61374;DHT22;47242;48.158;-1.586;2023-11-21T18:39:32;12.10;78.60
61374;DHT22;47242;48.158;-1.586;2023-11-21T18:41:59;12.10;78.70
61374;DHT22;47242;48.158;-1.586;2023-11-21T18:44:25;12.10;78.70
61374;DHT22;47242;48.158;-1.586;2023-11-21T18:46:51;12.10;78.70
61374;DHT22;47242;48.158;-1.586;2023-11-21T18:49:18;12.10;78.80
61374;DHT22;47242;48.158;-1.586;2023-11-21T18:51:46;12.10;78.90
61374;DHT22;47242;48.158;-1.586;2023-11-21T18:54:16;12.00;78.80
61374;DHT22;47242;48.158;-1.586;2023-11-21T18:56:41;12.00;78.90
61374;DHT22;47242;48.158;-1.586;2023-11-21T18:59:11;12.00;79.10
61374;DHT22;47242;48.158;-1.586;2023-11-21T19:01:36;12.00;79.10
61374;DHT22;47242;48.158;-1.586;2023-11-21T19:04:04;12.00;79.50
61374;DHT22;47242;48.158;-1.586;2023-11-21T19:06:30;12.10;79.40
61374;DHT22;47242;48.158;-1.586;2023-11-21T19:08:55;12.10;79.60
61374;DHT22;47242;48.158;-1.586;2023-11-21T19:11:21;12.10;79.70
61374;DHT22;47242;48.158;-1.586;2023-11-21T19:13:48;12.10;79.80
61374;DHT22;47242;48.158;-1.586;2023-11-21T19:16:14;12.00;79.60
61374;DHT22;47242;48.158;-1.586;2023-11-21T19:18:40;12.00;80.10
61374;DHT22;47242;48.158;-1.586;2023-11-21T19:21:15;12.00;80.10
61374;DHT22;47242;48.158;-1.586;2023-11-21T19:23:42;12.00;80.10
61374;DHT22;47242;48.158;-1.586;2023-11-21T19:26:08;12.00;80.30
61374;DHT22;47242;48.158;-1.586;2023-11-21T19:28:33;12.00;80.40
61374;DHT22;47242;48.158;-1.586;2023-11-21T19:30:59;12.00;80.30
61374;DHT22;47242;48.158;-1.586;2023-11-21T19:33:25;12.00;80.50
61374;DHT22;47242;48.158;-1.586;2023-11-21T19:35:52;12.10;80.60
61374;DHT22;47242;48.158;-1.586;2023-11-21T19:38:18;12.10;80.50
61374;DHT22;47242;48.158;-1.586;2023-11-21T19:40:45;12.00;80.50
61374;DHT22;47242;48.158;-1.586;2023-11-21T19:43:11;12.00;80.60
61374;DHT22;47242;48.158;-1.586;2023-11-21T19:45:36;12.00;80.50
61374;DHT22;47242;48.158;-1.586;2023-11-21T19:48:02;12.00;80.70
61374;DHT22;47242;48.158;-1.586;2023-11-21T19:50:28;12.00;80.80
61374;DHT22;47242;48.158;-1.586;2023-11-21T19:52:53;12.00;80.80
61374;DHT22;47242;48.158;-1.586;2023-11-21T19:55:19;12.00;80.70
61374;DHT22;47242;48.158;-1.586;2023-11-21T19:57:45;12.00;81.10
61374;DHT22;47242;48.158;-1.586;2023-11-21T20:00:11;12.00;81.00
61374;DHT22;47242;48.158;-1.586;2023-11-21T20:02:38;12.00;80.80
61374;DHT22;47242;48.158;-1.586;2023-11-21T20:05:03;12.10;80.90
61374;DHT22;47242;48.158;-1.586;2023-11-21T20:07:29;12.10;81.00
61374;DHT22;47242;48.158;-1.586;2023-11-21T20:10:01;12.10;80.90
61374;DHT22;47242;48.158;-1.586;2023-11-21T20:12:26;12.10;80.90
61374;DHT22;47242;48.158;-1.586;2023-11-21T20:14:52;12.10;81.00
61374;DHT22;47242;48.158;-1.586;2023-11-21T20:17:18;12.10;80.90
61374;DHT22;47242;48.158;-1.586;2023-11-21T20:19:44;12.00;80.90
61374;DHT22;47242;48.158;-1.586;2023-11-21T20:22:11;12.10;81.00
61374;DHT22;47242;48.158;-1.586;2023-11-21T20:24:37;12.10;81.00
61374;DHT22;47242;48.158;-1.586;2023-11-21T20:27:04;12.20;81.20
61374;DHT22;47242;48.158;-1.586;2023-11-21T20:29:30;12.10;81.00
61374;DHT22;47242;48.158;-1.586;2023-11-21T20:31:57;12.10;81.00
61374;DHT22;47242;48.158;-1.586;2023-11-21T20:34:23;12.10;81.20
61374;DHT22;47242;48.158;-1.586;2023-11-21T20:36:49;12.10;81.20
61374;DHT22;47242;48.158;-1.586;2023-11-21T20:39:15;12.10;81.40
61374;DHT22;47242;48.158;-1.586;2023-11-21T20:41:41;12.20;81.50
61374;DHT22;47242;48.158;-1.586;2023-11-21T20:44:07;12.10;81.80
61374;DHT22;47242;48.158;-1.586;2023-11-21T20:46:42;12.10;82.00
61374;DHT22;47242;48.158;-1.586;2023-11-21T20:49:09;12.10;82.30
61374;DHT22;47242;48.158;-1.586;2023-11-21T20:51:39;12.00;82.40
61374;DHT22;47242;48.158;-1.586;2023-11-21T20:54:05;12.00;82.60
61374;DHT22;47242;48.158;-1.586;2023-11-21T20:56:31;12.10;82.70
61374;DHT22;47242;48.158;-1.586;2023-11-21T20:58:57;12.10;82.70